Time;durP1;ratioP1;P1;durP2;ratioP2;P2;SDS_P1;SDS_P2;PMS_P1;PMS_P2;Temp;Humidity;BMP_temperature;BMP_pressure;BME280_temperature;BME280_humidity;BME280_pressure;Samples;Min_cycle;Max_cycle;Signal;HPM_P1;HPM_P2
2024/01/16 00:00:50;;;;;;;1.30;1.05;;;-0.30;99.90;;;;;;5032067;28;20041;-70
2024/01/16 00:03:16;;;;;;;2.90;1.30;;;0.10;99.90;;;;;;5032089;28;20049;-70
2024/01/16 00:05:41;;;;;;;1.65;0.90;;;-0.30;99.90;;;;;;5032277;28;20064;-69
2024/01/16 00:08:07;;;;;;;1.75;1.10;;;-0.40;99.90;;;;;;5032318;28;20478;-70
2024/01/16 00:10:32;;;;;;;0.70;0.70;;;-0.10;99.90;;;;;;5032077;28;20037;-70
2024/01/16 00:12:58;;;;;;;1.40;1.00;;;-0.40;99.90;;;;;;5014456;28;20041;-59
2024/01/16 00:15:24;;;;;;;1.42;0.90;;;-0.20;99.90;;;;;;5014342;28;20486;-59
2024/01/16 00:17:49;;;;;;;3.45;1.23;;;-0.20;99.90;;;;;;5032176;28;20393;-59
2024/01/16 00:20:15;;;;;;;3.55;0.82;;;-0.50;99.90;;;;;;5032279;28;20072;-59
2024/01/16 00:22:41;;;;;;;2.90;1.58;;;-0.20;99.90;;;;;;5032240;28;20484;-59
2024/01/16 00:25:07;;;;;;;2.30;0.90;;;-0.10;99.90;;;;;;5032135;28;20037;-60
2024/01/16 00:27:32;;;;;;;1.60;1.10;;;-0.70;99.90;;;;;;5015109;28;20056;-59
2024/01/16 00:29:58;;;;;;;1.30;0.98;;;-0.20;99.90;;;;;;5017989;28;20053;-59
2024/01/16 00:32:24;;;;;;;1.13;1.02;;;-0.50;99.90;;;;;;5035989;28;20492;-59
2024/01/16 00:34:55;;;;;;;2.30;1.02;;;-0.30;99.90;;;;;;5017689;28;20045;-59
2024/01/16 00:37:39;;;;;;;1.73;1.02;;;-0.30;99.90;;;;;;5015775;28;20045;-59
2024/01/16 00:40:05;;;;;;;0.88;0.88;;;-0.10;99.90;;;;;;5015824;28;20456;-59
2024/01/16 00:42:32;;;;;;;1.48;1.02;;;-0.10;99.90;;;;;;4998311;28;20497;-59
2024/01/16 00:44:58;;;;;;;1.42;1.08;;;-0.10;99.90;;;;;;5015905;28;20050;-59
2024/01/16 00:47:24;;;;;;;2.63;1.20;;;0.00;99.90;;;;;;5015874;28;20116;-59
2024/01/16 00:49:50;;;;;;;2.70;1.20;;;-0.30;99.90;;;;;;5015799;28;20038;-59
2024/01/16 00:52:15;;;;;;;1.60;1.00;;;-0.20;99.90;;;;;;5015627;28;20041;-67
2024/01/16 00:54:43;;;;;;;2.90;0.90;;;-0.30;99.90;;;;;;4997781;28;20041;-61
2024/01/16 00:57:08;;;;;;;1.92;1.20;;;-0.50;99.90;;;;;;4997801;28;20077;-59
2024/01/16 00:59:34;;;;;;;2.30;1.10;;;0.00;99.90;;;;;;4997819;28;20053;-59
2024/01/16 01:02:00;;;;;;;2.75;1.17;;;0.00;99.90;;;;;;5015621;28;20041;-60
2024/01/16 01:04:25;;;;;;;1.58;0.82;;;0.00;99.90;;;;;;5015426;28;20489;-59
2024/01/16 01:06:51;;;;;;;2.15;0.93;;;-0.10;99.90;;;;;;4997565;28;20494;-61
2024/01/16 01:09:17;;;;;;;1.10;1.00;;;-0.40;99.90;;;;;;5015237;28;20080;-59
2024/01/16 01:11:42;;;;;;;0.82;0.80;;;0.20;99.90;;;;;;4981602;28;20046;-59
2024/01/16 01:14:08;;;;;;;1.48;0.85;;;0.30;99.90;;;;;;4997445;28;20042;-61
2024/01/16 01:16:34;;;;;;;1.00;0.73;;;0.00;99.90;;;;;;4997688;28;20069;-59
2024/01/16 01:19:00;;;;;;;1.02;0.90;;;0.10;99.90;;;;;;5015181;28;20030;-62
2024/01/16 01:21:26;;;;;;;1.58;0.73;;;0.50;99.90;;;;;;5015564;28;20065;-59
2024/01/16 01:23:51;;;;;;;1.98;0.90;;;0.20;99.90;;;;;;5015264;28;20045;-59
2024/01/16 01:26:20;;;;;;;1.17;0.70;;;0.20;99.90;;;;;;5015147;28;20048;-59
2024/01/16 01:28:46;;;;;;;1.08;0.82;;;0.20;99.90;;;;;;4997327;28;20144;-59
2024/01/16 01:31:12;;;;;;;1.13;1.02;;;0.20;99.90;;;;;;5014739;28;20078;-59
2024/01/16 01:33:39;;;;;;;0.93;0.80;;;0.00;99.90;;;;;;4997060;28;20490;-61
2024/01/16 01:36:11;;;;;;;2.40;0.95;;;0.40;99.90;;;;;;5023819;28;20059;-59
2024/01/16 01:38:37;;;;;;;2.38;1.02;;;0.30;99.90;;;;;;5034330;28;20093;-59
2024/01/16 01:41:03;;;;;;;0.70;0.70;;;-0.10;99.90;;;;;;5034663;28;20038;-59
2024/01/16 01:43:28;;;;;;;1.30;1.00;;;-0.40;99.90;;;;;;5034284;28;20784;-59
2024/01/16 01:46:14;;;;;;;0.90;0.90;;;-0.20;99.90;;;;;;5034555;28;20045;-59
2024/01/16 01:48:41;;;;;;;2.75;0.80;;;-0.10;99.90;;;;;;5034253;28;20121;-59
2024/01/16 01:51:08;;;;;;;0.73;0.73;;;-0.10;99.90;;;;;;5016455;28;20041;-59
2024/01/16 01:53:35;;;;;;;0.82;0.73;;;-0.30;99.90;;;;;;5034628;28;20413;-59
2024/01/16 01:56:07;;;;;;;1.88;0.80;;;-0.40;99.90;;;;;;5033959;28;20144;-59
2024/01/16 01:58:33;;;;;;;;;;;-0.50;99.90;;;;;;5034394;28;20042;-59
2024/01/16 02:01:03;;;;;;;2.03;1.10;;;-0.50;99.90;;;;;;5034211;28;19975;-59
2024/01/16 02:03:31;;;;;;;1.42;0.88;;;-0.40;99.90;;;;;;5034364;28;20049;-64
2024/01/16 02:05:57;;;;;;;1.23;0.85;;;-0.30;99.90;;;;;;5033844;28;20390;-64
2024/01/16 02:08:23;;;;;;;1.20;0.80;;;-0.60;99.90;;;;;;5034111;28;20128;-64
2024/01/16 02:10:50;;;;;;;1.13;0.80;;;-0.80;99.90;;;;;;5033744;28;20116;-64
2024/01/16 02:13:20;;;;;;;0.70;0.70;;;-0.40;99.90;;;;;;5033802;28;20124;-63
2024/01/16 02:15:45;;;;;;;1.23;0.75;;;-0.60;99.90;;;;;;5033996;28;20377;-64
2024/01/16 02:18:11;;;;;;;2.05;0.88;;;-0.40;99.90;;;;;;5033972;28;20167;-64
2024/01/16 02:20:37;;;;;;;1.95;0.75;;;-0.80;99.90;;;;;;5033750;28;20045;-64
2024/01/16 02:23:04;;;;;;;0.73;0.70;;;-0.40;99.90;;;;;;5033793;28;20100;-64
2024/01/16 02:25:30;;;;;;;1.02;0.90;;;-0.50;99.90;;;;;;5033703;28;20037;-65
2024/01/16 02:27:56;;;;;;;0.70;0.70;;;-0.40;99.90;;;;;;5033588;28;20045;-64
2024/01/16 02:30:21;;;;;;;0.47;0.47;;;-0.30;99.90;;;;;;5033449;28;20037;-64
2024/01/16 02:32:47;;;;;;;0.95;0.82;;;0.00;99.90;;;;;;5033729;28;20049;-59
2024/01/16 02:35:13;;;;;;;0.93;0.75;;;0.20;99.90;;;;;;5032945;28;20389;-59
2024/01/16 02:37:52;;;;;;;0.73;0.70;;;0.20;99.90;;;;;;5033562;28;20056;-60
2024/01/16 02:40:17;;;;;;;1.52;0.80;;;0.10;99.90;;;;;;5015508;28;20068;-59
2024/01/16 02:42:43;;;;;;;0.95;0.70;;;0.30;99.90;;;;;;5015732;28;20080;-59
2024/01/16 02:45:09;;;;;;;1.63;0.88;;;0.30;99.90;;;;;;5015240;28;20053;-59
2024/01/16 02:47:35;;;;;;;1.55;0.90;;;0.50;99.90;;;;;;5033357;28;20496;-59
2024/01/16 02:50:02;;;;;;;1.30;0.90;;;-0.20;99.90;;;;;;5032853;28;20455;-59
2024/01/16 02:52:28;;;;;;;0.70;0.70;;;0.20;99.90;;;;;;5015357;28;20409;-60
2024/01/16 02:54:53;;;;;;;1.13;0.60;;;0.20;99.90;;;;;;5033166;28;20033;-59
2024/01/16 02:57:19;;;;;;;2.67;1.10;;;0.00;99.90;;;;;;5033177;28;20428;-59
2024/01/16 02:59:46;;;;;;;0.93;0.85;;;0.00;99.90;;;;;;5032894;28;20094;-59
2024/01/16 03:02:13;;;;;;;0.98;0.80;;;0.20;99.90;;;;;;5015411;28;20037;-60
2024/01/16 03:04:39;;;;;;;1.15;0.80;;;-0.20;99.90;;;;;;5015164;28;20053;-59
2024/01/16 03:07:05;;;;;;;1.55;0.80;;;-0.20;99.90;;;;;;5033055;28;20511;-59
2024/01/16 03:09:31;;;;;;;0.70;0.60;;;-0.30;99.90;;;;;;5032985;28;20056;-59
2024/01/16 03:11:57;;;;;;;0.60;0.60;;;-0.40;99.90;;;;;;5032927;28;20041;-60
2024/01/16 03:14:23;;;;;;;0.93;0.70;;;-0.30;99.90;;;;;;5015122;28;20041;-59
2024/01/16 03:16:49;;;;;;;1.45;0.70;;;-0.30;99.90;;;;;;5015094;28;20057;-59
2024/01/16 03:19:14;;;;;;;1.10;0.75;;;-0.20;99.90;;;;;;5014890;28;20371;-59
2024/01/16 03:21:41;;;;;;;0.70;0.70;;;-0.70;99.90;;;;;;5015105;28;20045;-59
2024/01/16 03:24:07;;;;;;;0.70;0.70;;;-0.50;99.90;;;;;;5015120;28;20493;-60
2024/01/16 03:26:32;;;;;;;1.77;1.00;;;-0.50;99.90;;;;;;5032466;28;20456;-58
2024/01/16 03:28:59;;;;;;;0.75;0.75;;;-0.20;99.90;;;;;;5032511;28;20076;-59
2024/01/16 03:31:24;;;;;;;1.98;0.80;;;-0.70;99.90;;;;;;5014797;28;20409;-58
2024/01/16 03:33:50;;;;;;;1.60;0.90;;;-0.70;99.90;;;;;;5032250;28;20104;-58
2024/01/16 03:36:23;;;;;;;1.38;0.90;;;-0.60;99.90;;;;;;5014293;28;20076;-58
2024/01/16 03:39:02;;;;;;;0.95;0.90;;;-0.70;99.90;;;;;;5014925;28;20053;-59
2024/01/16 03:41:27;;;;;;;1.23;0.82;;;-0.70;99.90;;;;;;5014680;28;20041;-58
2024/01/16 03:43:56;;;;;;;0.60;0.60;;;;;;;;;;5014750;28;20049;-64
2024/01/16 03:46:22;;;;;;;0.98;0.77;;;-0.80;99.90;;;;;;5032465;28;20400;-64
2024/01/16 03:48:48;;;;;;;1.67;0.90;;;-1.00;99.90;;;;;;5032486;28;20091;-64
2024/01/16 03:51:15;;;;;;;1.55;1.08;;;-0.60;99.90;;;;;;5032841;28;20065;-64
2024/01/16 03:53:41;;;;;;;1.27;0.77;;;-1.00;99.90;;;;;;5032001;28;20045;-64
2024/01/16 03:56:10;;;;;;;1.23;0.98;;;-1.00;99.90;;;;;;5031981;28;20042;-65
2024/01/16 03:58:35;;;;;;;1.35;0.90;;;-1.00;99.90;;;;;;5014827;28;20091;-64
2024/01/16 04:01:01;;;;;;;1.73;0.90;;;-0.90;99.90;;;;;;5032393;28;20037;-64
2024/01/16 04:03:27;;;;;;;0.75;0.68;;;-0.90;99.90;;;;;;5035057;28;20095;-64
2024/01/16 04:05:52;;;;;;;2.53;1.08;;;-1.00;99.90;;;;;;5036449;28;20040;-64
2024/01/16 04:08:18;;;;;;;2.53;1.08;;;-0.90;99.90;;;;;;5036388;28;20041;-64
2024/01/16 04:10:43;;;;;;;0.77;0.70;;;-0.90;99.90;;;;;;5036397;28;20038;-64
2024/01/16 04:13:09;;;;;;;1.15;0.93;;;-0.90;99.90;;;;;;5036322;28;20481;-64
2024/01/16 04:15:38;;;;;;;1.27;1.00;;;-0.90;99.90;;;;;;5018133;28;20042;-63
2024/01/16 04:18:04;;;;;;;1.35;0.82;;;-0.80;99.90;;;;;;5018171;28;20417;-64
2024/01/16 04:20:30;;;;;;;1.50;0.82;;;-0.80;99.90;;;;;;5036149;28;20044;-64
2024/01/16 04:22:57;;;;;;;0.93;0.60;;;-0.80;99.90;;;;;;5036166;28;20033;-64
2024/01/16 04:25:23;;;;;;;3.45;1.08;;;-0.80;99.90;;;;;;5036213;28;20052;-70
2024/01/16 04:27:49;;;;;;;0.80;0.80;;;-0.80;99.90;;;;;;5018010;28;20493;-70
2024/01/16 04:30:15;;;;;;;1.38;0.90;;;-0.40;99.90;;;;;;5017997;28;20049;-70
2024/01/16 04:32:40;;;;;;;1.85;0.75;;;-0.80;99.90;;;;;;5018244;28;20548;-70
2024/01/16 04:35:06;;;;;;;1.10;0.90;;;-0.70;99.90;;;;;;5017998;28;20125;-68
2024/01/16 04:37:38;;;;;;;1.40;0.90;;;-0.70;99.90;;;;;;5035348;28;20115;-69
2024/01/16 04:40:05;;;;;;;1.85;0.98;;;-0.70;99.90;;;;;;5035626;28;20047;-70
2024/01/16 04:42:31;;;;;;;0.80;0.70;;;-0.70;99.90;;;;;;5035532;28;20046;-70
2024/01/16 04:44:57;;;;;;;2.72;0.90;;;-0.70;99.90;;;;;;5017783;28;20436;-70
2024/01/16 04:47:23;;;;;;;1.42;0.88;;;-0.60;99.90;;;;;;5017807;28;20037;-69
2024/01/16 04:49:48;;;;;;;1.40;0.88;;;-0.60;99.90;;;;;;5035716;28;20045;-70
2024/01/16 04:52:14;;;;;;;0.93;0.77;;;-0.60;99.90;;;;;;5035580;28;20045;-70
2024/01/16 04:54:39;;;;;;;1.27;0.70;;;-0.70;99.90;;;;;;5035395;28;20050;-59
2024/01/16 04:57:05;;;;;;;1.23;0.95;;;-0.50;99.90;;;;;;5017537;28;20069;-59
2024/01/16 04:59:31;;;;;;;2.05;0.75;;;-0.60;99.90;;;;;;5017693;28;20124;-58
2024/01/16 05:01:56;;;;;;;0.98;0.80;;;-0.60;99.90;;;;;;5035140;28;20116;-59
2024/01/16 05:04:22;;;;;;;1.20;1.00;;;-0.50;99.90;;;;;;5035082;28;20077;-58
2024/01/16 05:06:51;;;;;;;1.27;0.80;;;-0.60;99.90;;;;;;5034958;28;20041;-58
2024/01/16 05:09:16;;;;;;;0.88;0.73;;;-0.50;99.90;;;;;;5017535;28;20452;-59
2024/01/16 05:11:42;;;;;;;1.13;0.77;;;-0.50;99.90;;;;;;5034928;28;20120;-59
2024/01/16 05:14:07;;;;;;;2.63;1.02;;;-0.50;99.90;;;;;;5034420;28;20046;-61
2024/01/16 05:16:33;;;;;;;0.90;0.90;;;-0.50;99.90;;;;;;5017112;28;20030;-58
2024/01/16 05:18:59;;;;;;;0.85;0.75;;;-0.50;99.90;;;;;;5034888;28;20041;-58
2024/01/16 05:21:24;;;;;;;1.45;0.70;;;-0.50;99.90;;;;;;5000729;28;20481;-59
2024/01/16 05:23:50;;;;;;;1.08;0.85;;;-0.50;99.90;;;;;;5017066;28;20489;-59
2024/01/16 05:26:15;;;;;;;1.63;0.90;;;-0.50;99.90;;;;;;5016751;28;20602;-58
2024/01/16 05:28:41;;;;;;;3.03;1.00;;;-0.50;99.90;;;;;;5034848;28;20378;-59
2024/01/16 05:31:07;;;;;;;1.65;0.95;;;-0.50;99.90;;;;;;5034815;28;20068;-58
2024/01/16 05:33:33;;;;;;;1.48;1.00;;;-0.50;99.90;;;;;;5016666;28;20068;-58
2024/01/16 05:35:58;;;;;;;1.50;1.00;;;-0.50;99.90;;;;;;5016660;28;20425;-64
2024/01/16 05:38:31;;;;;;;2.72;0.90;;;-0.40;99.90;;;;;;5034496;28;20465;-63
2024/01/16 05:40:56;;;;;;;1.30;0.70;;;-0.40;99.90;;;;;;5034415;28;20073;-63
2024/01/16 05:43:22;;;;;;;0.70;0.70;;;-0.60;99.90;;;;;;5034288;28;20120;-63
2024/01/16 05:45:48;;;;;;;0.75;0.75;;;-0.50;99.90;;;;;;5034548;28;20038;-64
2024/01/16 05:48:13;;;;;;;2.08;1.00;;;-0.40;99.90;;;;;;5034446;28;20046;-64
2024/01/16 05:50:39;;;;;;;1.00;0.88;;;-0.60;99.90;;;;;;5034233;28;20072;-63
2024/01/16 05:53:04;;;;;;;1.05;0.70;;;-0.30;99.90;;;;;;5034501;28;20120;-64
2024/01/16 05:55:35;;;;;;;0.77;0.70;;;-0.30;99.90;;;;;;5034348;28;20503;-64
2024/01/16 05:58:01;;;;;;;1.20;0.98;;;-0.30;99.90;;;;;;5016550;28;20393;-64
2024/01/16 06:00:26;;;;;;;3.08;0.88;;;-0.20;99.90;;;;;;5034327;28;20041;-64
2024/01/16 06:02:52;;;;;;;1.42;0.93;;;-0.30;99.90;;;;;;5034247;28;20044;-63
2024/01/16 06:05:17;;;;;;;0.90;0.90;;;-0.20;99.90;;;;;;5034285;28;20087;-63
2024/01/16 06:07:43;;;;;;;2.15;0.93;;;0.50;99.90;;;;;;5033816;28;20037;-63
2024/01/16 06:10:12;;;;;;;1.42;0.80;;;-0.20;99.90;;;;;;5034169;28;20045;-63
2024/01/16 06:12:38;;;;;;;1.20;0.88;;;-0.20;99.90;;;;;;5033786;28;20038;-63
2024/01/16 06:15:04;;;;;;;1.38;0.95;;;-0.20;99.90;;;;;;5034228;28;20115;-63
2024/01/16 06:17:29;;;;;;;0.70;0.70;;;-0.20;99.90;;;;;;5034028;28;20072;-63
2024/01/16 06:19:55;;;;;;;2.05;0.98;;;-0.30;99.90;;;;;;5033938;28;20041;-63
2024/01/16 06:22:21;;;;;;;1.67;0.90;;;-0.20;99.90;;;;;;5033897;28;20045;-63
2024/01/16 06:24:46;;;;;;;1.05;0.88;;;-0.30;99.90;;;;;;5033241;28;20073;-64
2024/01/16 06:27:18;;;;;;;1.75;1.02;;;-0.30;99.90;;;;;;5033573;28;20477;-64
2024/01/16 06:29:45;;;;;;;0.98;0.70;;;-0.30;99.90;;;;;;5015669;28;20111;-63
2024/01/16 06:32:11;;;;;;;1.23;0.80;;;-0.30;99.90;;;;;;5033663;28;20049;-65
2024/01/16 06:34:36;;;;;;;0.70;0.70;;;-0.30;99.90;;;;;;5033552;28;20516;-64
2024/01/16 06:37:09;;;;;;;3.42;0.95;;;-0.30;99.90;;;;;;5004073;28;20046;-64
2024/01/16 06:39:35;;;;;;;1.27;0.77;;;-0.30;99.90;;;;;;5013762;28;20038;-66
2024/01/16 06:42:00;;;;;;;3.40;1.13;;;-0.30;99.90;;;;;;5013760;28;20098;-66
2024/01/16 06:44:26;;;;;;;0.93;0.82;;;-0.60;99.90;;;;;;5013713;28;20576;-59
2024/01/16 06:46:53;;;;;;;0.70;0.70;;;-0.20;99.90;;;;;;5013488;28;20117;-60
2024/01/16 06:49:19;;;;;;;0.98;0.70;;;-0.30;99.90;;;;;;4996173;28;20088;-58
2024/01/16 06:51:45;;;;;;;1.80;1.00;;;-0.40;99.90;;;;;;4996077;28;20390;-59
2024/01/16 06:54:10;;;;;;;1.42;0.80;;;-0.20;99.90;;;;;;4995824;28;20038;-59
2024/01/16 06:56:36;;;;;;;1.00;0.90;;;-0.20;99.90;;;;;;5013650;28;20038;-59
2024/01/16 06:59:02;;;;;;;2.53;0.73;;;-0.20;99.90;;;;;;5013738;28;20034;-60
2024/01/16 07:01:27;;;;;;;0.77;0.70;;;-0.20;99.90;;;;;;5013531;28;20478;-58
2024/01/16 07:03:53;;;;;;;1.63;0.85;;;-0.20;99.90;;;;;;4995499;28;20092;-63
2024/01/16 07:06:19;;;;;;;1.05;0.70;;;-0.20;99.90;;;;;;4995762;28;20542;-63
2024/01/16 07:08:45;;;;;;;1.75;0.95;;;-0.20;99.90;;;;;;5013328;28;20042;-63
2024/01/16 07:11:13;;;;;;;0.75;0.70;;;-0.20;99.90;;;;;;5013206;28;20038;-63
2024/01/16 07:13:43;;;;;;;0.70;0.70;;;-0.20;99.90;;;;;;5013065;28;20049;-63
2024/01/16 07:16:12;;;;;;;0.60;0.60;;;-0.20;99.90;;;;;;5013144;28;20125;-63
2024/01/16 07:18:39;;;;;;;1.63;1.08;;;0.00;99.90;;;;;;4995135;28;20104;-63
2024/01/16 07:21:15;;;;;;;2.28;1.13;;;-0.20;99.90;;;;;;5012706;28;20101;-64
2024/01/16 07:23:41;;;;;;;1.02;0.70;;;-0.10;99.90;;;;;;4995456;28;20092;-63
2024/01/16 07:26:07;;;;;;;1.42;0.90;;;-0.20;99.90;;;;;;4995200;28;20041;-64
2024/01/16 07:28:33;;;;;;;1.73;0.90;;;-0.10;99.90;;;;;;5012711;28;20052;-67
2024/01/16 07:30:58;;;;;;;0.98;0.80;;;-0.10;99.90;;;;;;4995158;28;20042;-64
2024/01/16 07:33:24;;;;;;;1.45;0.95;;;-0.10;99.90;;;;;;5012944;28;20379;-63
2024/01/16 07:35:56;;;;;;;1.33;0.80;;;-0.20;99.90;;;;;;5013637;28;20042;-63
2024/01/16 07:38:36;;;;;;;0.70;0.70;;;-0.10;99.90;;;;;;5032380;28;20052;-63
2024/01/16 07:41:02;;;;;;;1.13;0.70;;;-0.20;99.90;;;;;;5032534;28;20444;-62
2024/01/16 07:43:29;;;;;;;0.95;0.88;;;-0.20;99.90;;;;;;4998185;28;20117;-64
2024/01/16 07:45:55;;;;;;;1.35;1.00;;;-0.20;99.90;;;;;;4998376;28;20058;-63
2024/01/16 07:48:22;;;;;;;1.42;0.85;;;-0.10;99.90;;;;;;5032457;28;20053;-63
2024/01/16 07:50:48;;;;;;;1.05;0.68;;;-0.20;99.90;;;;;;5032429;28;20127;-64
2024/01/16 07:53:15;;;;;;;1.67;0.77;;;-0.20;99.90;;;;;;5032502;28;20521;-63
2024/01/16 07:55:41;;;;;;;0.85;0.73;;;-0.10;99.90;;;;;;5032316;28;20079;-63
2024/01/16 07:58:07;;;;;;;1.67;0.93;;;-0.20;99.90;;;;;;5014385;28;20060;-63
2024/01/16 08:00:32;;;;;;;2.47;1.05;;;-0.20;99.90;;;;;;5032384;28;20037;-63
2024/01/16 08:02:58;;;;;;;1.20;1.10;;;-0.20;99.90;;;;;;5032493;28;20037;-65
2024/01/16 08:05:27;;;;;;;2.13;1.00;;;-0.20;99.90;;;;;;5032340;28;20511;-63
2024/01/16 08:07:54;;;;;;;1.05;0.95;;;-0.20;99.90;;;;;;5032011;28;20045;-63
2024/01/16 08:10:19;;;;;;;1.13;1.00;;;-0.20;99.90;;;;;;5031993;28;20076;-63
2024/01/16 08:12:45;;;;;;;0.80;0.80;;;-0.10;99.90;;;;;;5031934;28;20100;-63
2024/01/16 08:15:11;;;;;;;1.35;1.00;;;-0.10;99.90;;;;;;5032171;28;20037;-64
2024/01/16 08:17:37;;;;;;;0.80;0.63;;;-0.10;99.90;;;;;;5014532;28;20044;-64
2024/01/16 08:20:03;;;;;;;1.88;1.23;;;-0.10;99.90;;;;;;5014201;28;20033;-64
2024/01/16 08:22:29;;;;;;;1.48;1.15;;;-0.10;99.90;;;;;;5032168;28;20049;-64
2024/01/16 08:24:55;;;;;;;2.80;1.38;;;0.00;99.90;;;;;;5032404;28;20477;-71
2024/01/16 08:27:20;;;;;;;1.45;1.35;;;0.00;99.90;;;;;;5015375;28;20053;-71
2024/01/16 08:29:49;;;;;;;1.45;1.08;;;0.00;99.90;;;;;;5032724;28;20512;-69
2024/01/16 08:32:16;;;;;;;1.48;1.38;;;-0.10;99.90;;;;;;5014999;28;20413;-71
2024/01/16 08:34:42;;;;;;;1.67;1.30;;;0.10;99.90;;;;;;5016167;28;20183;-70
2024/01/16 08:37:14;;;;;;;1.63;1.50;;;0.20;99.90;;;;;;4999781;28;20058;-71
2024/01/16 08:39:53;;;;;;;1.52;1.13;;;0.70;99.90;;;;;;5034426;28;20060;-71
2024/01/16 08:42:19;;;;;;;1.48;1.20;;;0.20;99.90;;;;;;5017273;28;20045;-70
2024/01/16 08:44:45;;;;;;;2.17;1.45;;;0.20;99.90;;;;;;5016846;28;20379;-71
2024/01/16 08:47:10;;;;;;;1.40;1.30;;;0.30;99.90;;;;;;5036112;28;20876;-71
2024/01/16 08:49:38;;;;;;;1.73;1.25;;;0.40;99.90;;;;;;5037862;28;20087;-70
2024/01/16 08:52:05;;;;;;;1.15;1.00;;;0.40;99.90;;;;;;5039482;28;20042;-71
2024/01/16 08:54:30;;;;;;;2.10;1.20;;;0.40;99.90;;;;;;5020525;28;20456;-71
2024/01/16 08:56:56;;;;;;;2.22;1.20;;;0.20;99.90;;;;;;5021646;28;20051;-71
2024/01/16 08:59:22;;;;;;;1.20;1.10;;;0.40;99.90;;;;;;5006309;28;20079;-71
2024/01/16 09:01:48;;;;;;;2.17;1.23;;;0.70;99.90;;;;;;5038561;28;20042;-72
2024/01/16 09:04:13;;;;;;;1.35;1.25;;;0.60;99.90;;;;;;5040758;28;20072;-71
2024/01/16 09:06:39;;;;;;;1.48;1.38;;;0.50;99.90;;;;;;5021270;28;20497;-71
2024/01/16 09:09:05;;;;;;;1.35;1.25;;;0.40;99.90;;;;;;5023191;28;20041;-69
2024/01/16 09:11:32;;;;;;;1.42;1.33;;;0.60;99.90;;;;;;5022171;28;20045;-70
2024/01/16 09:13:57;;;;;;;1.45;1.15;;;0.60;99.90;;;;;;5039402;28;20379;-71
2024/01/16 09:16:23;;;;;;;1.65;1.25;;;0.70;99.90;;;;;;5022527;28;20154;-72
2024/01/16 09:18:49;;;;;;;1.83;1.48;;;0.70;99.90;;;;;;5039903;28;20037;-70
2024/01/16 09:21:15;;;;;;;1.48;1.20;;;0.70;99.90;;;;;;5021413;28;20388;-71
2024/01/16 09:23:40;;;;;;;2.17;1.25;;;1.10;99.90;;;;;;5038783;28;20112;-71
2024/01/16 09:26:06;;;;;;;2.45;1.70;;;0.90;99.90;;;;;;5018384;28;20049;-63
2024/01/16 09:28:31;;;;;;;1.48;1.08;;;0.80;99.90;;;;;;5034953;28;20439;-64
2024/01/16 09:30:58;;;;;;;1.92;1.73;;;0.90;99.90;;;;;;5034974;28;20116;-63
2024/01/16 09:33:25;;;;;;;1.52;1.33;;;1.10;99.90;;;;;;5017086;28;20512;-63
2024/01/16 09:35:51;;;;;;;1.65;1.45;;;1.10;99.90;;;;;;5037143;28;20049;-71
2024/01/16 09:38:23;;;;;;;1.88;1.38;;;1.30;99.90;;;;;;5038612;28;20394;-70
2024/01/16 09:40:52;;;;;;;2.25;1.30;;;;;;;;;;5038458;28;20095;-70
2024/01/16 09:43:18;;;;;;;1.17;1.05;;;1.10;99.90;;;;;;5036949;28;20124;-71
2024/01/16 09:45:47;;;;;;;2.17;1.20;;;1.10;99.90;;;;;;5020765;28;20095;-71
2024/01/16 09:48:13;;;;;;;1.70;1.30;;;1.10;99.90;;;;;;5035839;28;20507;-71
2024/01/16 09:50:39;;;;;;;1.63;1.38;;;1.20;99.90;;;;;;5018439;28;20088;-70
2024/01/16 09:53:05;;;;;;;1.50;1.40;;;1.50;99.90;;;;;;5017048;28;20077;-70
2024/01/16 09:55:31;;;;;;;1.60;1.25;;;1.10;99.90;;;;;;5034797;28;20045;-71
2024/01/16 09:57:58;;;;;;;1.92;1.25;;;1.10;99.90;;;;;;5016764;28;20046;-69
2024/01/16 10:00:25;;;;;;;1.58;1.30;;;1.30;99.90;;;;;;5033580;28;20406;-70
2024/01/16 10:02:51;;;;;;;1.75;1.23;;;;;;;;;;5034198;28;20041;-70
2024/01/16 10:05:17;;;;;;;1.75;1.10;;;;;;;;;;5016470;28;20049;-69
2024/01/16 10:07:46;;;;;;;1.02;1.00;;;;;;;;;;5034115;28;20052;-70
2024/01/16 10:10:12;;;;;;;2.10;1.33;;;;;;;;;;5016280;28;20132;-69
2024/01/16 10:12:39;;;;;;;1.35;1.00;;;;;;;;;;5034294;28;20045;-69
2024/01/16 10:15:08;;;;;;;3.25;1.20;;;;;;;;;;5034132;28;20081;-69
2024/01/16 10:17:43;;;;;;;1.33;1.23;;;;;;;;;;5034054;28;20079;-70
2024/01/16 10:20:13;;;;;;;1.50;1.40;;;;;;;;;;5015909;28;20037;-69
2024/01/16 10:22:53;;;;;;;1.73;1.58;;;;;;;;;;5016261;28;20049;-69
2024/01/16 10:25:21;;;;;;;1.85;1.70;;;;;;;;;;5033733;28;20049;-70
2024/01/16 10:27:47;;;;;;;1.50;1.40;;;;;;;;;;5033602;28;20083;-69
2024/01/16 10:30:13;;;;;;;1.42;1.30;;;;;;;;;;5034294;28;20042;-71
2024/01/16 10:32:40;;;;;;;2.95;1.52;;;;;;;;;;5015777;28;20052;-68
2024/01/16 10:35:13;;;;;;;1.67;1.58;;;;;;;;;;5015863;28;20041;-64
2024/01/16 10:37:49;;;;;;;2.15;1.95;;;;;;;;;;5032977;28;20093;-63
2024/01/16 10:40:30;;;;;;;1.45;1.35;;;;;;;;;;5032120;28;20045;-63
2024/01/16 10:43:00;;;;;;;2.22;1.30;;;;;;;;;;5033542;28;20049;-63
2024/01/16 10:45:26;;;;;;;1.40;1.27;;;;;;;;;;5015681;28;20042;-63
2024/01/16 10:48:05;;;;;;;1.65;1.38;;;;;;;;;;5033038;28;20045;-63
2024/01/16 10:50:32;;;;;;;6.47;2.00;;;;;;;;;;5033294;28;20114;-64
2024/01/16 10:53:01;;;;;;;1.90;1.63;;;;;;;;;;5031887;28;20116;-63
2024/01/16 10:55:28;;;;;;;1.73;1.27;;;;;;;;;;5033289;28;20080;-65
2024/01/16 10:57:56;;;;;;;1.50;1.40;;;;;;;;;;5032937;28;20038;-66
2024/01/16 11:00:22;;;;;;;1.60;1.50;;;;;;;;;;5033120;28;20041;-65
2024/01/16 11:03:10;;;;;;;1.20;1.10;;;;;;;;;;5015112;28;20041;-65
2024/01/16 11:05:36;;;;;;;2.63;1.25;;;;;;;;;;5033099;28;20045;-66
2024/01/16 11:08:03;;;;;;;1.58;1.30;;;;;;;;;;5033023;28;20053;-64
2024/01/16 11:10:29;;;;;;;1.48;1.38;;;;;;;;;;5033008;28;20056;-64
2024/01/16 11:12:56;;;;;;;1.10;1.00;;;;;;;;;;5031203;28;20041;-64
2024/01/16 11:15:22;;;;;;;2.63;1.20;;;;;;;;;;5014838;28;20060;-64
2024/01/16 11:17:49;;;;;;;1.90;1.20;;;;;;;;;;5032597;28;20072;-64
2024/01/16 11:20:16;;;;;;;1.15;1.00;;;;;;;;;;5032859;28;20037;-64
2024/01/16 11:22:46;;;;;;;1.75;1.00;;;;;;;;;;5032549;28;20080;-64
2024/01/16 11:25:13;;;;;;;1.13;0.88;;;;;;;;;;5032598;28;20455;-64
2024/01/16 11:27:40;;;;;;;0.90;0.90;;;;;;;;;;5014984;28;20501;-64
2024/01/16 11:30:07;;;;;;;1.00;0.90;;;;;;;;;;5032622;28;20103;-64
2024/01/16 11:32:37;;;;;;;1.15;1.00;;;;;;;;;;5031181;28;20045;-64
2024/01/16 11:35:04;;;;;;;0.60;0.60;;;;;;;;;;5032589;28;20492;-64
2024/01/16 11:37:41;;;;;;;0.82;0.70;;;;;;;;;;5014264;28;20054;-64
2024/01/16 11:40:22;;;;;;;0.60;0.60;;;;;;;;;;5016239;28;20043;-64
2024/01/16 11:42:49;;;;;;;1.45;1.20;;;;;;;;;;5032287;28;20034;-64
2024/01/16 11:45:30;;;;;;;0.90;0.80;;;;;;;;;;5032144;28;20049;-64
2024/01/16 11:48:12;;;;;;;0.95;0.80;;;;;;;;;;5032320;28;20111;-64
2024/01/16 11:50:38;;;;;;;1.65;0.85;;;;;;;;;;5032106;28;20448;-64
2024/01/16 11:53:04;;;;;;;0.80;0.65;;;;;;;;;;5032289;28;20033;-64
2024/01/16 11:55:31;;;;;;;0.77;0.70;;;;;;;;;;5032084;28;20037;-64
2024/01/16 11:58:02;;;;;;;1.58;1.00;;;;;;;;;;5014520;28;20045;-64
2024/01/16 12:00:28;;;;;;;1.23;0.85;;;;;;;;;;5032031;28;20049;-64
2024/01/16 12:02:57;;;;;;;1.55;1.17;;;;;;;;;;5032368;28;20041;-64
2024/01/16 12:05:23;;;;;;;0.60;0.60;;;;;;;;;;5031995;28;20049;-64
2024/01/16 12:07:50;;;;;;;0.60;0.60;;;;;;;;;;5032259;28;20124;-64
2024/01/16 12:10:17;;;;;;;1.45;1.08;;;;;;;;;;5031811;28;20048;-64
2024/01/16 12:12:43;;;;;;;2.90;0.63;;;;;;;;;;5032206;28;20049;-63
2024/01/16 12:15:19;;;;;;;0.98;0.90;;;;;;;;;;5032297;28;20203;-64
2024/01/16 12:18:01;;;;;;;1.55;0.90;;;;;;;;;;5032362;28;20073;-64
2024/01/16 12:20:31;;;;;;;0.73;0.70;;;;;;;;;;5032203;28;20464;-63
2024/01/16 12:22:57;;;;;;;0.80;0.70;;;;;;;;;;5032100;28;20085;-64
2024/01/16 12:25:23;;;;;;;2.35;1.30;;;;;;;;;;5036172;28;20409;-64
2024/01/16 12:27:59;;;;;;;1.85;1.00;;;;;;;;;;5036076;28;20049;-64
2024/01/16 12:30:28;;;;;;;2.05;1.20;;;2.20;99.90;;;;;;5036090;28;20041;-64
2024/01/16 12:33:08;;;;;;;0.73;0.73;;;2.70;99.90;;;;;;5035688;28;20041;-64
2024/01/16 12:35:39;;;;;;;1.50;0.90;;;3.00;99.90;;;;;;5035856;28;20157;-64
2024/01/16 12:38:05;;;;;;;0.85;0.80;;;;;;;;;;5035356;28;20111;-63
2024/01/16 12:40:50;;;;;;;2.58;1.17;;;;;;;;;;5035473;28;20048;-63
2024/01/16 12:43:21;;;;;;;1.40;0.88;;;2.50;99.90;;;;;;5018047;28;20050;-64
2024/01/16 12:45:55;;;;;;;0.90;0.90;;;2.60;99.90;;;;;;5035535;28;20056;-64
2024/01/16 12:48:25;;;;;;;1.02;0.95;;;2.50;99.90;;;;;;5035554;28;20068;-64
2024/01/16 12:50:51;;;;;;;0.82;0.82;;;;;;;;;;5035509;28;20045;-64
2024/01/16 12:53:19;;;;;;;1.40;1.20;;;;;;;;;;5035553;28;20056;-64
2024/01/16 12:55:45;;;;;;;1.45;1.23;;;;;;;;;;5035133;28;20053;-64
2024/01/16 12:58:14;;;;;;;1.27;1.00;;;;;;;;;;5035488;28;20107;-64
2024/01/16 13:00:40;;;;;;;2.47;1.25;;;;;;;;;;5017433;28;20045;-64
2024/01/16 13:03:06;;;;;;;1.63;1.10;;;;;;;;;;5017447;28;20056;-64
2024/01/16 13:05:32;;;;;;;2.17;1.42;;;;;;;;;;5035595;28;20045;-61
2024/01/16 13:08:05;;;;;;;1.25;1.10;;;;;;;;;;5035279;28;20041;-60
2024/01/16 13:10:31;;;;;;;1.63;1.02;;;;;;;;;;5034984;28;20041;-61
2024/01/16 13:13:16;;;;;;;2.13;1.27;;;;;;;;;;5035052;28;20041;-61